Terminal Aerodrome Forecast
Issued by NWS North Platte, NE

Home | Current Version | Previous Version | Text Only | Print | Product List | Glossary On
Versions: 1 2 3 4 5 6 7 8 9 10 11 12 13 14 15 16 17 18 19 20 21 22 23
000
FTUS43 KLBF 120400 AAC
TAFVTN
TAF AMD
KVTN 120418Z 1204/1224 02007KT P6SM -RA SCT040 BKN120
     FM120500 02005KT P6SM VCTS SCT060CB BKN120
      TEMPO 1206/1208 VRB21G31KT 2SM +TSRA BKN030CB
     FM120900 VRB06KT P6SM SCT050 BKN120=

USA.gov is the U.S. government's official web portal to all federal, state and local government web resources and services.